sensor_id;sensor_type;location;lat;lon;timestamp;P1;durP1;ratioP1;P2;durP2;ratioP2
12451;SDS011;6291;48.924;12.204;2023-08-21T00:03:22;8.20;;;7.40;;
12451;SDS011;6291;48.924;12.204;2023-08-21T00:08:27;8.15;;;7.35;;
12451;SDS011;6291;48.924;12.204;2023-08-21T00:13:30;7.78;;;7.07;;
12451;SDS011;6291;48.924;12.204;2023-08-21T00:18:33;8.55;;;7.70;;
12451;SDS011;6291;48.924;12.204;2023-08-21T00:23:38;8.52;;;7.72;;
12451;SDS011;6291;48.924;12.204;2023-08-21T00:28:41;8.68;;;7.78;;
12451;SDS011;6291;48.924;12.204;2023-08-21T00:33:45;9.73;;;8.73;;
12451;SDS011;6291;48.924;12.204;2023-08-21T00:38:49;10.18;;;9.20;;
12451;SDS011;6291;48.924;12.204;2023-08-21T00:43:53;10.30;;;9.30;;
12451;SDS011;6291;48.924;12.204;2023-08-21T00:48:56;10.05;;;9.10;;
12451;SDS011;6291;48.924;12.204;2023-08-21T00:54:02;10.07;;;9.07;;
12451;SDS011;6291;48.924;12.204;2023-08-21T00:59:06;9.35;;;8.45;;
12451;SDS011;6291;48.924;12.204;2023-08-21T01:04:10;10.10;;;9.10;;
12451;SDS011;6291;48.924;12.204;2023-08-21T01:09:17;10.18;;;9.15;;
12451;SDS011;6291;48.924;12.204;2023-08-21T01:14:26;10.27;;;9.13;;
12451;SDS011;6291;48.924;12.204;2023-08-21T01:19:37;9.87;;;8.97;;
12451;SDS011;6291;48.924;12.204;2023-08-21T01:24:44;9.82;;;8.02;;
12451;SDS011;6291;48.924;12.204;2023-08-21T01:29:48;10.60;;;8.23;;
12451;SDS011;6291;48.924;12.204;2023-08-21T01:34:52;9.33;;;8.33;;
12451;SDS011;6291;48.924;12.204;2023-08-21T01:39:59;9.57;;;8.63;;
12451;SDS011;6291;48.924;12.204;2023-08-21T01:45:03;9.98;;;8.98;;
12451;SDS011;6291;48.924;12.204;2023-08-21T01:50:07;10.90;;;9.90;;
12451;SDS011;6291;48.924;12.204;2023-08-21T01:55:14;11.30;;;9.53;;
12451;SDS011;6291;48.924;12.204;2023-08-21T02:00:17;11.07;;;9.95;;
12451;SDS011;6291;48.924;12.204;2023-08-21T02:05:21;11.33;;;10.33;;
12451;SDS011;6291;48.924;12.204;2023-08-21T02:10:26;10.85;;;9.80;;
12451;SDS011;6291;48.924;12.204;2023-08-21T02:15:29;11.30;;;10.30;;
12451;SDS011;6291;48.924;12.204;2023-08-21T02:20:32;11.17;;;10.07;;
12451;SDS011;6291;48.924;12.204;2023-08-21T02:25:37;11.50;;;10.40;;
12451;SDS011;6291;48.924;12.204;2023-08-21T02:30:41;10.87;;;9.77;;
12451;SDS011;6291;48.924;12.204;2023-08-21T02:35:45;10.90;;;9.70;;
12451;SDS011;6291;48.924;12.204;2023-08-21T02:40:49;10.90;;;9.80;;
12451;SDS011;6291;48.924;12.204;2023-08-21T02:45:53;10.45;;;9.55;;
12451;SDS011;6291;48.924;12.204;2023-08-21T02:50:56;11.10;;;9.85;;
12451;SDS011;6291;48.924;12.204;2023-08-21T02:56:03;10.88;;;9.98;;
12451;SDS011;6291;48.924;12.204;2023-08-21T03:01:06;10.57;;;9.63;;
12451;SDS011;6291;48.924;12.204;2023-08-21T03:06:09;10.70;;;9.65;;
12451;SDS011;6291;48.924;12.204;2023-08-21T03:11:14;10.75;;;9.85;;
12451;SDS011;6291;48.924;12.204;2023-08-21T03:16:17;11.48;;;10.48;;
12451;SDS011;6291;48.924;12.204;2023-08-21T03:21:21;11.23;;;10.13;;
12451;SDS011;6291;48.924;12.204;2023-08-21T03:26:27;12.07;;;10.95;;
12451;SDS011;6291;48.924;12.204;2023-08-21T03:31:31;11.05;;;9.95;;
12451;SDS011;6291;48.924;12.204;2023-08-21T03:36:34;12.27;;;11.23;;
12451;SDS011;6291;48.924;12.204;2023-08-21T03:41:41;12.27;;;11.18;;
12451;SDS011;6291;48.924;12.204;2023-08-21T03:46:45;11.75;;;10.70;;
12451;SDS011;6291;48.924;12.204;2023-08-21T03:51:48;11.25;;;10.30;;
12451;SDS011;6291;48.924;12.204;2023-08-21T03:56:53;12.10;;;10.90;;
12451;SDS011;6291;48.924;12.204;2023-08-21T04:01:57;11.80;;;10.80;;
12451;SDS011;6291;48.924;12.204;2023-08-21T04:07:00;11.15;;;10.05;;
12451;SDS011;6291;48.924;12.204;2023-08-21T04:12:05;12.75;;;11.55;;
12451;SDS011;6291;48.924;12.204;2023-08-21T04:17:09;12.15;;;10.95;;
12451;SDS011;6291;48.924;12.204;2023-08-21T04:22:12;13.27;;;11.98;;
12451;SDS011;6291;48.924;12.204;2023-08-21T04:27:17;12.40;;;11.20;;
12451;SDS011;6291;48.924;12.204;2023-08-21T04:32:21;12.10;;;10.90;;
12451;SDS011;6291;48.924;12.204;2023-08-21T04:37:24;12.60;;;11.47;;
12451;SDS011;6291;48.924;12.204;2023-08-21T04:42:30;12.13;;;11.02;;
12451;SDS011;6291;48.924;12.204;2023-08-21T04:47:34;11.90;;;10.80;;
12451;SDS011;6291;48.924;12.204;2023-08-21T04:52:37;11.13;;;10.02;;
12451;SDS011;6291;48.924;12.204;2023-08-21T04:57:44;11.13;;;9.87;;
12451;SDS011;6291;48.924;12.204;2023-08-21T05:02:47;10.95;;;10.00;;
12451;SDS011;6291;48.924;12.204;2023-08-21T05:07:52;11.63;;;10.53;;
12451;SDS011;6291;48.924;12.204;2023-08-21T05:12:59;12.35;;;11.15;;
12451;SDS011;6291;48.924;12.204;2023-08-21T05:18:03;11.70;;;10.60;;
12451;SDS011;6291;48.924;12.204;2023-08-21T05:23:07;11.37;;;10.20;;
12451;SDS011;6291;48.924;12.204;2023-08-21T05:28:12;9.65;;;8.75;;
12451;SDS011;6291;48.924;12.204;2023-08-21T05:33:15;9.43;;;8.52;;
12451;SDS011;6291;48.924;12.204;2023-08-21T05:38:20;9.23;;;8.02;;
12451;SDS011;6291;48.924;12.204;2023-08-21T05:43:25;11.02;;;8.68;;
12451;SDS011;6291;48.924;12.204;2023-08-21T05:48:28;9.55;;;8.52;;
12451;SDS011;6291;48.924;12.204;2023-08-21T05:53:32;10.13;;;8.75;;
12451;SDS011;6291;48.924;12.204;2023-08-21T05:58:38;9.32;;;8.40;;
12451;SDS011;6291;48.924;12.204;2023-08-21T06:03:41;9.73;;;8.73;;
12451;SDS011;6291;48.924;12.204;2023-08-21T06:09:01;9.82;;;8.80;;
12451;SDS011;6291;48.924;12.204;2023-08-21T06:14:07;10.40;;;9.40;;
12451;SDS011;6291;48.924;12.204;2023-08-21T06:19:10;11.57;;;10.55;;
12451;SDS011;6291;48.924;12.204;2023-08-21T06:24:14;10.87;;;9.77;;
12451;SDS011;6291;48.924;12.204;2023-08-21T06:29:18;9.20;;;8.30;;
12451;SDS011;6291;48.924;12.204;2023-08-21T06:34:23;8.77;;;7.97;;
12451;SDS011;6291;48.924;12.204;2023-08-21T06:39:26;10.07;;;8.40;;
12451;SDS011;6291;48.924;12.204;2023-08-21T06:44:31;9.63;;;8.73;;
12451;SDS011;6291;48.924;12.204;2023-08-21T06:49:34;9.80;;;8.90;;
12451;SDS011;6291;48.924;12.204;2023-08-21T06:54:38;9.73;;;8.93;;
12451;SDS011;6291;48.924;12.204;2023-08-21T06:59:43;11.13;;;9.95;;
12451;SDS011;6291;48.924;12.204;2023-08-21T07:04:46;10.70;;;9.70;;
12451;SDS011;6291;48.924;12.204;2023-08-21T07:09:49;10.32;;;9.32;;
12451;SDS011;6291;48.924;12.204;2023-08-21T07:14:54;9.27;;;8.43;;
12451;SDS011;6291;48.924;12.204;2023-08-21T07:19:57;9.85;;;8.95;;
12451;SDS011;6291;48.924;12.204;2023-08-21T07:25:01;8.90;;;7.97;;
12451;SDS011;6291;48.924;12.204;2023-08-21T07:30:07;9.45;;;7.90;;
12451;SDS011;6291;48.924;12.204;2023-08-21T07:35:12;9.50;;;8.30;;
12451;SDS011;6291;48.924;12.204;2023-08-21T07:40:15;9.13;;;8.30;;
12451;SDS011;6291;48.924;12.204;2023-08-21T07:45:20;8.10;;;7.43;;
12451;SDS011;6291;48.924;12.204;2023-08-21T07:50:24;7.90;;;7.30;;
12451;SDS011;6291;48.924;12.204;2023-08-21T07:55:27;9.23;;;7.40;;
12451;SDS011;6291;48.924;12.204;2023-08-21T08:00:32;7.88;;;7.20;;
12451;SDS011;6291;48.924;12.204;2023-08-21T08:05:35;8.45;;;7.65;;
12451;SDS011;6291;48.924;12.204;2023-08-21T08:10:39;8.40;;;7.60;;
12451;SDS011;6291;48.924;12.204;2023-08-21T08:15:44;8.27;;;7.53;;
12451;SDS011;6291;48.924;12.204;2023-08-21T08:20:48;7.83;;;6.90;;
12451;SDS011;6291;48.924;12.204;2023-08-21T08:25:51;7.80;;;7.10;;
12451;SDS011;6291;48.924;12.204;2023-08-21T08:30:56;7.45;;;6.80;;
12451;SDS011;6291;48.924;12.204;2023-08-21T08:36:00;7.40;;;6.80;;
12451;SDS011;6291;48.924;12.204;2023-08-21T08:41:04;6.85;;;6.20;;
12451;SDS011;6291;48.924;12.204;2023-08-21T08:46:15;6.80;;;6.30;;
12451;SDS011;6291;48.924;12.204;2023-08-21T08:51:19;7.25;;;6.55;;
12451;SDS011;6291;48.924;12.204;2023-08-21T08:56:23;6.97;;;6.27;;
12451;SDS011;6291;48.924;12.204;2023-08-21T09:01:28;7.15;;;6.45;;
12451;SDS011;6291;48.924;12.204;2023-08-21T09:06:32;6.73;;;6.23;;
12451;SDS011;6291;48.924;12.204;2023-08-21T09:11:36;8.60;;;6.10;;
12451;SDS011;6291;48.924;12.204;2023-08-21T09:16:58;6.40;;;5.90;;
12451;SDS011;6291;48.924;12.204;2023-08-21T09:22:08;7.47;;;5.90;;
12451;SDS011;6291;48.924;12.204;2023-08-21T09:27:13;6.20;;;5.70;;
12451;SDS011;6291;48.924;12.204;2023-08-21T09:32:20;5.78;;;5.20;;
12451;SDS011;6291;48.924;12.204;2023-08-21T09:37:27;5.77;;;5.27;;
12451;SDS011;6291;48.924;12.204;2023-08-21T09:42:33;9.95;;;6.10;;
12451;SDS011;6291;48.924;12.204;2023-08-21T09:47:38;5.90;;;5.40;;
12451;SDS011;6291;48.924;12.204;2023-08-21T09:52:43;6.03;;;5.30;;
12451;SDS011;6291;48.924;12.204;2023-08-21T09:57:46;6.65;;;6.05;;
12451;SDS011;6291;48.924;12.204;2023-08-21T10:03:00;6.88;;;6.22;;
12451;SDS011;6291;48.924;12.204;2023-08-21T10:08:06;6.30;;;5.80;;
12451;SDS011;6291;48.924;12.204;2023-08-21T10:13:10;7.00;;;6.37;;
12451;SDS011;6291;48.924;12.204;2023-08-21T10:18:19;6.30;;;5.70;;
12451;SDS011;6291;48.924;12.204;2023-08-21T10:23:26;7.50;;;5.70;;
12451;SDS011;6291;48.924;12.204;2023-08-21T10:28:42;6.10;;;4.82;;
12451;SDS011;6291;48.924;12.204;2023-08-21T10:33:52;5.60;;;5.10;;
12451;SDS011;6291;48.924;12.204;2023-08-21T10:38:58;5.67;;;5.17;;
12451;SDS011;6291;48.924;12.204;2023-08-21T10:44:02;6.85;;;5.63;;
12451;SDS011;6291;48.924;12.204;2023-08-21T10:49:11;6.32;;;5.07;;
12451;SDS011;6291;48.924;12.204;2023-08-21T10:54:14;5.15;;;4.65;;
12451;SDS011;6291;48.924;12.204;2023-08-21T10:59:18;5.50;;;4.80;;
12451;SDS011;6291;48.924;12.204;2023-08-21T11:04:23;4.68;;;4.25;;
12451;SDS011;6291;48.924;12.204;2023-08-21T11:09:26;5.00;;;4.55;;
12451;SDS011;6291;48.924;12.204;2023-08-21T11:14:33;4.97;;;4.65;;
12451;SDS011;6291;48.924;12.204;2023-08-21T11:19:39;4.50;;;4.20;;
12451;SDS011;6291;48.924;12.204;2023-08-21T11:24:44;5.37;;;4.80;;
12451;SDS011;6291;48.924;12.204;2023-08-21T11:29:49;5.10;;;4.55;;
12451;SDS011;6291;48.924;12.204;2023-08-21T11:34:55;5.10;;;4.60;;
12451;SDS011;6291;48.924;12.204;2023-08-21T11:39:59;5.00;;;4.50;;
12451;SDS011;6291;48.924;12.204;2023-08-21T11:45:09;4.68;;;4.22;;
12451;SDS011;6291;48.924;12.204;2023-08-21T11:50:14;4.47;;;4.03;;
12451;SDS011;6291;48.924;12.204;2023-08-21T11:55:20;5.88;;;5.07;;
12451;SDS011;6291;48.924;12.204;2023-08-21T12:00:26;6.27;;;4.90;;
12451;SDS011;6291;48.924;12.204;2023-08-21T12:05:32;5.30;;;4.80;;
12451;SDS011;6291;48.924;12.204;2023-08-21T12:10:36;4.43;;;4.10;;
12451;SDS011;6291;48.924;12.204;2023-08-21T12:15:42;4.40;;;3.92;;
12451;SDS011;6291;48.924;12.204;2023-08-21T12:20:47;5.18;;;4.30;;
12451;SDS011;6291;48.924;12.204;2023-08-21T12:25:50;4.65;;;4.25;;
12451;SDS011;6291;48.924;12.204;2023-08-21T12:30:53;4.87;;;4.47;;
12451;SDS011;6291;48.924;12.204;2023-08-21T12:35:58;4.80;;;4.40;;
12451;SDS011;6291;48.924;12.204;2023-08-21T12:41:01;4.60;;;4.20;;
12451;SDS011;6291;48.924;12.204;2023-08-21T12:46:05;4.50;;;4.10;;
12451;SDS011;6291;48.924;12.204;2023-08-21T12:51:11;4.53;;;4.20;;
12451;SDS011;6291;48.924;12.204;2023-08-21T12:56:14;4.70;;;4.30;;
12451;SDS011;6291;48.924;12.204;2023-08-21T13:01:17;5.13;;;4.63;;
12451;SDS011;6291;48.924;12.204;2023-08-21T13:06:24;4.70;;;4.30;;
12451;SDS011;6291;48.924;12.204;2023-08-21T13:11:27;4.68;;;4.28;;
12451;SDS011;6291;48.924;12.204;2023-08-21T13:16:32;4.93;;;4.53;;
12451;SDS011;6291;48.924;12.204;2023-08-21T13:21:37;5.47;;;4.55;;
12451;SDS011;6291;48.924;12.204;2023-08-21T13:26:41;5.37;;;4.43;;
12451;SDS011;6291;48.924;12.204;2023-08-21T13:31:45;4.93;;;4.40;;
12451;SDS011;6291;48.924;12.204;2023-08-21T13:36:51;5.13;;;4.63;;
12451;SDS011;6291;48.924;12.204;2023-08-21T13:41:54;5.40;;;4.40;;
12451;SDS011;6291;48.924;12.204;2023-08-21T13:46:58;4.83;;;4.43;;
12451;SDS011;6291;48.924;12.204;2023-08-21T13:52:04;4.85;;;4.45;;
12451;SDS011;6291;48.924;12.204;2023-08-21T13:57:07;5.20;;;4.53;;
12451;SDS011;6291;48.924;12.204;2023-08-21T14:02:11;5.30;;;4.80;;
12451;SDS011;6291;48.924;12.204;2023-08-21T14:07:16;5.40;;;4.77;;
12451;SDS011;6291;48.924;12.204;2023-08-21T14:12:20;5.25;;;4.72;;
12451;SDS011;6291;48.924;12.204;2023-08-21T14:17:24;6.35;;;5.40;;
12451;SDS011;6291;48.924;12.204;2023-08-21T14:22:30;9.27;;;4.82;;
12451;SDS011;6291;48.924;12.204;2023-08-21T14:27:35;5.17;;;4.67;;
12451;SDS011;6291;48.924;12.204;2023-08-21T14:32:40;5.93;;;5.03;;
12451;SDS011;6291;48.924;12.204;2023-08-21T14:37:47;5.68;;;4.78;;
12451;SDS011;6291;48.924;12.204;2023-08-21T14:42:51;6.82;;;6.13;;
12451;SDS011;6291;48.924;12.204;2023-08-21T14:47:55;7.07;;;4.97;;
12451;SDS011;6291;48.924;12.204;2023-08-21T14:53:00;5.70;;;4.75;;
12451;SDS011;6291;48.924;12.204;2023-08-21T14:58:04;5.55;;;4.55;;
12451;SDS011;6291;48.924;12.204;2023-08-21T15:03:09;5.60;;;4.50;;
12451;SDS011;6291;48.924;12.204;2023-08-21T15:08:14;5.28;;;4.82;;
12451;SDS011;6291;48.924;12.204;2023-08-21T15:13:18;8.57;;;4.63;;
12451;SDS011;6291;48.924;12.204;2023-08-21T15:18:22;7.10;;;4.97;;
12451;SDS011;6291;48.924;12.204;2023-08-21T15:23:28;6.75;;;5.10;;
12451;SDS011;6291;48.924;12.204;2023-08-21T15:28:31;7.30;;;5.00;;
12451;SDS011;6291;48.924;12.204;2023-08-21T15:33:35;6.88;;;4.93;;
12451;SDS011;6291;48.924;12.204;2023-08-21T15:38:40;6.90;;;4.82;;
12451;SDS011;6291;48.924;12.204;2023-08-21T15:43:43;6.77;;;5.27;;
12451;SDS011;6291;48.924;12.204;2023-08-21T15:48:47;8.57;;;5.50;;
12451;SDS011;6291;48.924;12.204;2023-08-21T15:53:51;5.68;;;5.13;;
12451;SDS011;6291;48.924;12.204;2023-08-21T15:58:55;8.27;;;5.82;;
12451;SDS011;6291;48.924;12.204;2023-08-21T16:03:59;5.90;;;5.40;;
12451;SDS011;6291;48.924;12.204;2023-08-21T16:09:04;6.40;;;5.38;;
12451;SDS011;6291;48.924;12.204;2023-08-21T16:14:07;8.00;;;5.75;;
12451;SDS011;6291;48.924;12.204;2023-08-21T16:19:11;7.53;;;5.85;;
12451;SDS011;6291;48.924;12.204;2023-08-21T16:24:15;7.27;;;5.93;;
12451;SDS011;6291;48.924;12.204;2023-08-21T16:29:19;6.30;;;5.70;;
12451;SDS011;6291;48.924;12.204;2023-08-21T16:34:24;6.60;;;5.50;;
12451;SDS011;6291;48.924;12.204;2023-08-21T16:39:29;7.53;;;5.40;;
12451;SDS011;6291;48.924;12.204;2023-08-21T16:44:32;7.00;;;5.50;;
12451;SDS011;6291;48.924;12.204;2023-08-21T16:49:36;5.68;;;4.82;;
12451;SDS011;6291;48.924;12.204;2023-08-21T16:54:41;5.20;;;4.73;;
12451;SDS011;6291;48.924;12.204;2023-08-21T16:59:44;6.43;;;5.68;;
12451;SDS011;6291;48.924;12.204;2023-08-21T17:04:48;6.60;;;5.00;;
12451;SDS011;6291;48.924;12.204;2023-08-21T17:09:53;6.63;;;5.10;;
12451;SDS011;6291;48.924;12.204;2023-08-21T17:14:56;6.37;;;5.50;;
12451;SDS011;6291;48.924;12.204;2023-08-21T17:20:05;5.78;;;5.20;;
12451;SDS011;6291;48.924;12.204;2023-08-21T17:25:10;6.80;;;5.60;;
12451;SDS011;6291;48.924;12.204;2023-08-21T17:30:16;8.77;;;5.55;;
12451;SDS011;6291;48.924;12.204;2023-08-21T17:35:19;15.55;;;6.18;;
12451;SDS011;6291;48.924;12.204;2023-08-21T17:40:24;10.77;;;6.00;;
12451;SDS011;6291;48.924;12.204;2023-08-21T17:45:27;7.35;;;5.50;;
12451;SDS011;6291;48.924;12.204;2023-08-21T17:50:31;6.53;;;5.73;;
12451;SDS011;6291;48.924;12.204;2023-08-21T17:55:35;8.20;;;5.30;;
12451;SDS011;6291;48.924;12.204;2023-08-21T18:00:39;6.95;;;5.30;;
12451;SDS011;6291;48.924;12.204;2023-08-21T18:05:42;7.85;;;5.65;;
12451;SDS011;6291;48.924;12.204;2023-08-21T18:10:47;11.05;;;5.70;;
12451;SDS011;6291;48.924;12.204;2023-08-21T18:15:53;16.30;;;6.90;;
12451;SDS011;6291;48.924;12.204;2023-08-21T18:20:56;12.35;;;6.03;;
12451;SDS011;6291;48.924;12.204;2023-08-21T18:26:01;9.37;;;6.10;;
12451;SDS011;6291;48.924;12.204;2023-08-21T18:31:04;7.23;;;6.07;;
12451;SDS011;6291;48.924;12.204;2023-08-21T18:36:08;9.07;;;5.93;;
12451;SDS011;6291;48.924;12.204;2023-08-21T18:41:13;7.80;;;6.30;;
12451;SDS011;6291;48.924;12.204;2023-08-21T18:46:17;8.97;;;6.53;;
12451;SDS011;6291;48.924;12.204;2023-08-21T18:51:20;7.55;;;6.75;;
12451;SDS011;6291;48.924;12.204;2023-08-21T18:56:25;9.18;;;6.70;;
12451;SDS011;6291;48.924;12.204;2023-08-21T19:01:28;14.33;;;6.40;;
12451;SDS011;6291;48.924;12.204;2023-08-21T19:06:32;10.13;;;7.07;;
12451;SDS011;6291;48.924;12.204;2023-08-21T19:11:37;8.93;;;6.40;;
12451;SDS011;6291;48.924;12.204;2023-08-21T19:16:41;12.40;;;7.43;;
12451;SDS011;6291;48.924;12.204;2023-08-21T19:21:45;9.00;;;6.93;;
12451;SDS011;6291;48.924;12.204;2023-08-21T19:26:51;8.02;;;6.85;;
12451;SDS011;6291;48.924;12.204;2023-08-21T19:31:54;8.25;;;6.75;;
12451;SDS011;6291;48.924;12.204;2023-08-21T19:36:57;10.60;;;7.07;;
12451;SDS011;6291;48.924;12.204;2023-08-21T19:42:02;8.35;;;6.80;;
12451;SDS011;6291;48.924;12.204;2023-08-21T19:47:06;8.30;;;6.90;;
12451;SDS011;6291;48.924;12.204;2023-08-21T19:52:10;10.93;;;7.53;;
12451;SDS011;6291;48.924;12.204;2023-08-21T19:57:15;9.95;;;7.90;;
12451;SDS011;6291;48.924;12.204;2023-08-21T20:02:18;10.45;;;7.70;;
12451;SDS011;6291;48.924;12.204;2023-08-21T20:07:21;9.93;;;7.65;;
12451;SDS011;6291;48.924;12.204;2023-08-21T20:12:26;9.27;;;7.70;;
12451;SDS011;6291;48.924;12.204;2023-08-21T20:17:29;9.60;;;8.00;;
12451;SDS011;6291;48.924;12.204;2023-08-21T20:22:33;11.23;;;8.20;;
12451;SDS011;6291;48.924;12.204;2023-08-21T20:27:37;10.23;;;8.60;;
12451;SDS011;6291;48.924;12.204;2023-08-21T20:32:41;9.32;;;7.75;;
12451;SDS011;6291;48.924;12.204;2023-08-21T20:37:45;11.73;;;7.60;;
12451;SDS011;6291;48.924;12.204;2023-08-21T20:42:50;9.00;;;7.57;;
12451;SDS011;6291;48.924;12.204;2023-08-21T20:47:54;8.70;;;7.72;;
12451;SDS011;6291;48.924;12.204;2023-08-21T20:52:57;10.13;;;7.70;;
12451;SDS011;6291;48.924;12.204;2023-08-21T20:58:02;8.38;;;7.55;;
12451;SDS011;6291;48.924;12.204;2023-08-21T21:03:05;9.03;;;7.97;;
12451;SDS011;6291;48.924;12.204;2023-08-21T21:08:09;9.80;;;7.68;;
12451;SDS011;6291;48.924;12.204;2023-08-21T21:13:13;8.90;;;8.00;;
12451;SDS011;6291;48.924;12.204;2023-08-21T21:18:17;10.17;;;8.00;;
12451;SDS011;6291;48.924;12.204;2023-08-21T21:23:20;10.18;;;8.63;;
12451;SDS011;6291;48.924;12.204;2023-08-21T21:28:25;10.02;;;8.35;;
12451;SDS011;6291;48.924;12.204;2023-08-21T21:33:29;9.57;;;8.00;;
12451;SDS011;6291;48.924;12.204;2023-08-21T21:38:32;8.88;;;7.97;;
12451;SDS011;6291;48.924;12.204;2023-08-21T21:43:38;9.27;;;7.97;;
12451;SDS011;6291;48.924;12.204;2023-08-21T21:48:42;9.47;;;8.30;;
12451;SDS011;6291;48.924;12.204;2023-08-21T21:53:45;9.90;;;8.50;;
12451;SDS011;6291;48.924;12.204;2023-08-21T21:58:50;9.15;;;8.25;;
12451;SDS011;6291;48.924;12.204;2023-08-21T22:03:54;8.70;;;7.75;;
12451;SDS011;6291;48.924;12.204;2023-08-21T22:08:57;8.73;;;7.80;;
12451;SDS011;6291;48.924;12.204;2023-08-21T22:14:02;9.63;;;7.88;;
12451;SDS011;6291;48.924;12.204;2023-08-21T22:19:06;9.02;;;8.07;;
12451;SDS011;6291;48.924;12.204;2023-08-21T22:24:10;8.90;;;8.03;;
12451;SDS011;6291;48.924;12.204;2023-08-21T22:29:14;9.30;;;7.97;;
12451;SDS011;6291;48.924;12.204;2023-08-21T22:34:19;9.82;;;8.07;;
12451;SDS011;6291;48.924;12.204;2023-08-21T22:39:22;10.50;;;9.30;;
12451;SDS011;6291;48.924;12.204;2023-08-21T22:44:28;10.38;;;8.18;;
12451;SDS011;6291;48.924;12.204;2023-08-21T22:49:31;9.00;;;8.03;;
12451;SDS011;6291;48.924;12.204;2023-08-21T22:54:35;11.27;;;8.60;;
12451;SDS011;6291;48.924;12.204;2023-08-21T22:59:39;9.90;;;8.43;;
12451;SDS011;6291;48.924;12.204;2023-08-21T23:04:43;9.70;;;8.70;;
12451;SDS011;6291;48.924;12.204;2023-08-21T23:09:46;10.83;;;9.17;;
12451;SDS011;6291;48.924;12.204;2023-08-21T23:14:52;9.85;;;8.57;;
12451;SDS011;6291;48.924;12.204;2023-08-21T23:19:55;10.82;;;8.52;;
12451;SDS011;6291;48.924;12.204;2023-08-21T23:24:59;9.18;;;8.23;;
12451;SDS011;6291;48.924;12.204;2023-08-21T23:30:04;9.67;;;8.63;;
12451;SDS011;6291;48.924;12.204;2023-08-21T23:35:08;9.67;;;8.67;;
12451;SDS011;6291;48.924;12.204;2023-08-21T23:40:12;10.07;;;8.67;;
12451;SDS011;6291;48.924;12.204;2023-08-21T23:45:18;11.80;;;8.60;;
12451;SDS011;6291;48.924;12.204;2023-08-21T23:50:22;10.25;;;9.02;;
12451;SDS011;6291;48.924;12.204;2023-08-21T23:55:26;9.98;;;8.98;;
